Guayaquil, Ecuador

12:44 PM ECT en Diciembre 22, 2014 (GMT -0500)
Jose Joaquin de Olmedo | Change Station
CLOSE
Current Station
Aeropuerto
Location: Guayaquil,
Altura: 30 ft
Estaciones meteorológicas cercanas

Alt 30 ft 2.16 °S, 79.88 °W | Updated 44 minutes ago

Mostly Cloudy
Muy nublado
84 ° F
Sensación térmica 87 ° F
N
4
Viento Variable Viento desde Este

Hoy
Alta -- | Baja -- ° F
--% Posibilidad de precipitaciones
Ayer
Alta -- | Baja -- ° F
Precip. -- pul
6:10 AM 6:25 PM
Luna nueva, 1% visible
Presión 29.80 pul
Visibilidad 6.2 Millas
Nubes Muy nublado 3000 ft
Índice de calor 87 ° F
Punto de rocío 66 ° F
Humedad 55%
Precipitaciones 0.00 pul
Espesor de la nieve No disponible.
UV 8 de una escala de 12
Polen No disponible.
Calidad del aire No disponible.
Flu Activity No disponible.
METAR SEGU 221700Z 10003KT 9999 BKN030 29/19 Q1009 NOSIG RMK A2981

More Conditions Fewer Conditions

Presión 29.80 pul
Visibilidad 6.2 Millas
Nubes Muy nublado 3000 ft
Índice de calor 87 ° F
Punto de rocío 66 ° F
Humedad 55%
Precipitaciones 0.00 pul
Espesor de la nieve No disponible.
UV 8 de una escala de 12
Polen No disponible.
Calidad del aire No disponible.
Flu Activity No disponible.
METAR SEGU 221700Z 10003KT 9999 BKN030 29/19 Q1009 NOSIG RMK A2981

More Conditions Fewer Conditions

10-Day Weather Forecast

Almanac

Astronomía

Dec. 22, 2014 Salida Puesta
Hora real
Crepúsculo civil
Crepúsculo náutico
Crepúsculo astronómico
Luna
Horas de luz
Horas de luz
Tomorrow will be .
, % of the Moon is Illuminated

Extremos de hoy

Máximos del país Bajas del país

Community

WunderPhotos

Upload Photos

1,779,655 ¡fotos cargadas!

WunderBlogs® & News

Nearby

Calidad del aire

  Calidad del aire Índice AQ Contaminante
Not available.

Grosos de nieve

Estación Profundido Altura

Actividad de terremotos

Ciudad Distance Mag. Tiempo y dato
Magnitud mínima muestra es 2,5.

Temperaturas de aguas costeras

Lugar Temperatura

Estaciones meteorológicas cercanas